Terminal Aerodrome Forecast
Issued by NWS

Home | Current Version | Previous Version | Text Only | Print | Product List | Glossary On
Versions: 1 2 3 4 5 6 7 8 9 10 11 12 13 14 15 16 17 18
000
FTUS43 KAPX 201100
TAFPLN
TAF
KPLN 201132Z 2012/2112 23010G18KT 5SM TSRA BKN040CB OVC070
     FM201400 21010G18KT P6SM VCSH OVC035
     FM201600 24009G17KT P6SM OVC025
     FM210000 26004KT P6SM SCT025 BKN100
     FM210600 32004KT 4SM BR OVC012=

USA.gov is the U.S. government's official web portal to all federal, state and local government web resources and services.